createdAt,value
2024-01-16T00:01:13.979Z,14.25
2024-01-16T00:03:41.270Z,15.05
2024-01-16T00:06:08.894Z,14.27
2024-01-16T00:08:36.248Z,16.00
2024-01-16T00:11:04.620Z,13.48
2024-01-16T00:13:33.585Z,13.65
2024-01-16T00:16:04.021Z,12.98
2024-01-16T00:18:31.532Z,12.07
2024-01-16T00:20:58.833Z,12.38
2024-01-16T00:23:26.307Z,13.90
2024-01-16T00:25:53.508Z,14.23
2024-01-16T00:28:21.148Z,13.10
2024-01-16T00:30:48.500Z,12.43
2024-01-16T00:33:15.837Z,13.40
2024-01-16T00:35:43.368Z,12.23
2024-01-16T00:38:10.687Z,12.52
2024-01-16T00:40:37.933Z,12.45
2024-01-16T00:43:05.583Z,12.40
2024-01-16T00:45:32.845Z,12.20
2024-01-16T00:48:00.397Z,12.18
2024-01-16T00:50:28.083Z,11.98
2024-01-16T00:52:55.235Z,12.48
2024-01-16T00:55:22.458Z,12.23
2024-01-16T00:57:49.619Z,11.93
2024-01-16T01:00:16.983Z,11.93
2024-01-16T01:02:45.411Z,11.60
2024-01-16T01:05:12.750Z,12.60
2024-01-16T01:07:39.957Z,12.18
2024-01-16T01:10:07.560Z,12.13
2024-01-16T01:12:34.736Z,10.40
2024-01-16T01:15:03.036Z,11.00
2024-01-16T01:17:31.785Z,12.05
2024-01-16T01:19:59.011Z,11.75
2024-01-16T01:22:26.359Z,12.00
2024-01-16T01:24:53.647Z,12.57
2024-01-16T01:27:20.903Z,14.07
2024-01-16T01:29:48.109Z,12.75
2024-01-16T01:32:15.342Z,12.90
2024-01-16T01:34:45.298Z,12.82
2024-01-16T01:37:12.635Z,12.35
2024-01-16T01:39:39.796Z,11.70
2024-01-16T01:42:07.032Z,11.82
2024-01-16T01:44:34.331Z,12.10
2024-01-16T01:47:01.707Z,12.43
2024-01-16T01:49:29.223Z,12.48
2024-01-16T01:51:56.896Z,13.18
2024-01-16T01:54:26.167Z,12.85
2024-01-16T01:56:53.761Z,12.57
2024-01-16T01:59:23.353Z,11.73
2024-01-16T02:01:54.125Z,11.82
2024-01-16T02:04:22.916Z,11.70
2024-01-16T02:06:50.346Z,12.73
2024-01-16T02:09:17.591Z,13.10
2024-01-16T02:11:44.877Z,12.30
2024-01-16T02:14:13.271Z,11.93
2024-01-16T02:16:42.424Z,11.68
2024-01-16T02:19:10.105Z,12.40
2024-01-16T02:21:51.197Z,12.15
2024-01-16T02:24:20.367Z,11.95
2024-01-16T02:26:48.456Z,12.88
2024-01-16T02:29:17.698Z,11.40
2024-01-16T02:31:45.049Z,11.48
2024-01-16T02:34:12.433Z,11.98
2024-01-16T02:36:40.022Z,11.15
2024-01-16T02:39:07.811Z,12.68
2024-01-16T02:41:35.210Z,12.07
2024-01-16T02:44:02.834Z,11.65
2024-01-16T02:46:30.058Z,11.88
2024-01-16T02:48:57.406Z,11.63
2024-01-16T02:51:24.653Z,11.02
2024-01-16T02:53:51.891Z,10.93
2024-01-16T02:56:19.355Z,10.43
2024-01-16T02:58:46.645Z,10.48
2024-01-16T03:01:15.759Z,12.45
2024-01-16T03:03:43.127Z,11.25
2024-01-16T03:06:10.501Z,11.25
2024-01-16T03:08:37.757Z,12.25
2024-01-16T03:11:05.205Z,10.95
2024-01-16T03:13:32.436Z,11.07
2024-01-16T03:15:59.738Z,11.00
2024-01-16T03:18:27.635Z,11.73
2024-01-16T03:20:55.083Z,11.02
2024-01-16T03:23:22.300Z,11.90
2024-01-16T03:25:49.491Z,13.10
2024-01-16T03:28:16.813Z,11.80
2024-01-16T03:30:44.149Z,11.75
2024-01-16T03:33:11.616Z,12.02
2024-01-16T03:35:38.967Z,11.52
2024-01-16T03:38:06.166Z,11.82
2024-01-16T03:40:35.650Z,11.32
2024-01-16T03:43:03.271Z,10.70
2024-01-16T03:45:30.450Z,11.35
2024-01-16T03:47:57.877Z,11.77
2024-01-16T03:50:25.170Z,11.55
2024-01-16T03:52:52.501Z,11.27
2024-01-16T03:55:19.786Z,11.73
2024-01-16T03:57:46.936Z,12.45
2024-01-16T04:00:15.162Z,11.45
2024-01-16T04:02:42.328Z,12.07
2024-01-16T04:05:09.736Z,12.70
2024-01-16T04:07:37.024Z,12.13
2024-01-16T04:10:06.523Z,11.93
2024-01-16T04:12:33.941Z,11.88
2024-01-16T04:15:01.228Z,13.27
2024-01-16T04:17:29.870Z,13.68
2024-01-16T04:19:57.118Z,12.20
2024-01-16T04:22:24.315Z,12.15
2024-01-16T04:24:51.605Z,13.00
2024-01-16T04:27:18.823Z,12.48
2024-01-16T04:29:46.360Z,12.77
2024-01-16T04:32:13.636Z,12.20
2024-01-16T04:34:40.925Z,11.63
2024-01-16T04:37:08.115Z,12.13
2024-01-16T04:39:35.358Z,11.68
2024-01-16T04:42:02.560Z,14.68
2024-01-16T04:44:30.298Z,14.05
2024-01-16T04:46:57.703Z,12.68
2024-01-16T04:49:25.494Z,13.13
2024-01-16T04:51:52.828Z,14.00
2024-01-16T04:54:20.007Z,13.13
2024-01-16T04:56:47.386Z,13.02
2024-01-16T04:59:16.907Z,12.48
2024-01-16T05:01:44.294Z,13.15
2024-01-16T05:04:11.799Z,12.52
2024-01-16T05:06:39.883Z,12.13
2024-01-16T05:09:07.119Z,12.60
2024-01-16T05:11:34.351Z,12.57
2024-01-16T05:14:01.582Z,12.77
2024-01-16T05:16:28.950Z,11.77
2024-01-16T05:18:57.575Z,13.40
2024-01-16T05:21:24.844Z,13.38
2024-01-16T05:23:52.308Z,11.65
2024-01-16T05:26:19.712Z,13.32
2024-01-16T05:28:46.915Z,11.50
2024-01-16T05:31:14.100Z,11.50
2024-01-16T05:33:41.362Z,13.07
2024-01-16T05:36:09.689Z,12.95
2024-01-16T05:38:38.979Z,13.27
2024-01-16T05:41:06.462Z,14.68
2024-01-16T05:43:33.680Z,13.75
2024-01-16T05:46:02.056Z,13.50
2024-01-16T05:48:29.436Z,14.30
2024-01-16T05:50:56.841Z,13.38
2024-01-16T05:53:24.110Z,13.13
2024-01-16T05:55:51.394Z,14.68
2024-01-16T05:58:18.608Z,13.57
2024-01-16T06:00:45.940Z,15.55
2024-01-16T06:03:13.130Z,15.13
2024-01-16T06:05:40.473Z,15.88
2024-01-16T06:08:07.865Z,14.23
2024-01-16T06:10:35.099Z,15.05
2024-01-16T06:13:02.406Z,14.68
2024-01-16T06:15:29.675Z,14.90
2024-01-16T06:17:56.898Z,15.95
2024-01-16T06:20:26.045Z,14.25
2024-01-16T06:22:53.365Z,13.00
2024-01-16T06:25:20.604Z,14.23
2024-01-16T06:27:47.770Z,13.93
2024-01-16T06:30:15.327Z,16.27
2024-01-16T06:32:42.814Z,15.35
2024-01-16T06:35:10.203Z,15.88
2024-01-16T06:37:38.156Z,15.57
2024-01-16T06:40:07.063Z,14.20
2024-01-16T06:42:34.810Z,14.43
2024-01-16T06:45:02.354Z,13.05
2024-01-16T06:47:30.818Z,15.27
2024-01-16T06:49:58.085Z,14.20
2024-01-16T06:52:25.884Z,16.33
2024-01-16T06:54:53.063Z,15.05
2024-01-16T06:57:20.213Z,15.38
2024-01-16T06:59:47.860Z,17.23
2024-01-16T07:02:15.119Z,16.33
2024-01-16T07:04:42.420Z,15.55
2024-01-16T07:07:09.641Z,16.50
2024-01-16T07:09:36.850Z,14.95
2024-01-16T07:12:05.418Z,15.82
2024-01-16T07:14:34.107Z,15.20
2024-01-16T07:17:01.380Z,16.13
2024-01-16T07:19:28.615Z,16.52
2024-01-16T07:21:56.219Z,14.50
2024-01-16T07:24:24.642Z,14.23
2024-01-16T07:26:52.027Z,16.15
2024-01-16T07:29:20.058Z,15.88
2024-01-16T07:31:47.796Z,15.20
2024-01-16T07:34:21.283Z,14.65
2024-01-16T07:36:48.981Z,14.95
2024-01-16T07:39:16.325Z,15.05
2024-01-16T07:41:43.749Z,16.08
2024-01-16T07:44:11.052Z,15.55
2024-01-16T07:46:39.008Z,15.45
2024-01-16T07:49:07.196Z,15.07
2024-01-16T07:51:34.518Z,14.38
2024-01-16T07:54:10.311Z,14.10
2024-01-16T07:56:39.255Z,13.85
2024-01-16T07:59:06.728Z,14.38
2024-01-16T08:01:34.058Z,14.55
2024-01-16T08:04:01.565Z,14.57
2024-01-16T08:06:29.296Z,12.93
2024-01-16T08:08:57.130Z,13.48
2024-01-16T08:11:25.061Z,13.70
2024-01-16T08:13:52.421Z,13.07
2024-01-16T08:16:19.719Z,14.32
2024-01-16T08:18:47.154Z,11.35
2024-01-16T08:21:14.529Z,13.10
2024-01-16T08:23:41.880Z,12.55
2024-01-16T08:26:09.290Z,11.32
2024-01-16T08:28:37.115Z,12.40
2024-01-16T08:31:05.433Z,11.45
2024-01-16T08:33:37.543Z,11.80
2024-01-16T08:36:10.837Z,11.05
2024-01-16T08:38:38.199Z,11.40
2024-01-16T08:41:07.809Z,11.57
2024-01-16T08:43:35.367Z,10.88
2024-01-16T08:46:03.350Z,11.43
2024-01-16T08:48:31.033Z,12.02
2024-01-16T08:50:58.615Z,12.60
2024-01-16T08:53:26.032Z,12.20
2024-01-16T08:55:53.382Z,11.45
2024-01-16T08:58:20.927Z,12.07
2024-01-16T09:00:48.710Z,11.85
2024-01-16T09:03:16.241Z,12.30
2024-01-16T09:05:45.089Z,12.95
2024-01-16T09:08:14.058Z,12.38
2024-01-16T09:10:41.808Z,11.48
2024-01-16T09:13:10.448Z,12.60
2024-01-16T09:15:38.017Z,12.10
2024-01-16T09:18:06.733Z,11.88
2024-01-16T09:20:34.800Z,12.60
2024-01-16T09:23:02.539Z,11.13
2024-01-16T09:25:31.209Z,11.30
2024-01-16T09:27:59.068Z,12.13
2024-01-16T09:30:26.723Z,11.80
2024-01-16T09:32:54.219Z,11.70
2024-01-16T09:35:21.682Z,10.75
2024-01-16T09:37:49.595Z,13.30
2024-01-16T09:40:17.639Z,11.88
2024-01-16T09:42:47.041Z,12.25
2024-01-16T09:45:21.812Z,12.90
2024-01-16T09:47:52.268Z,13.15
2024-01-16T09:50:20.968Z,12.90
2024-01-16T09:52:48.848Z,12.25
2024-01-16T09:55:17.022Z,10.30
2024-01-16T09:57:47.666Z,12.82
2024-01-16T10:00:16.882Z,11.88
2024-01-16T10:02:44.350Z,12.35
2024-01-16T10:05:13.338Z,12.63
2024-01-16T10:07:42.531Z,11.48
2024-01-16T10:10:12.303Z,11.02
2024-01-16T10:12:40.962Z,11.48
2024-01-16T10:15:09.352Z,11.15
2024-01-16T10:17:38.678Z,11.98
2024-01-16T10:20:07.728Z,11.40
2024-01-16T10:22:35.240Z,10.60
2024-01-16T10:25:07.630Z,10.57
2024-01-16T10:27:35.782Z,11.27
2024-01-16T10:30:04.618Z,10.95
2024-01-16T10:32:39.366Z,11.45
2024-01-16T10:35:14.910Z,11.65
2024-01-16T10:37:43.608Z,10.90
2024-01-16T10:40:11.257Z,11.43
2024-01-16T10:42:39.728Z,11.85
2024-01-16T10:45:07.960Z,11.55
2024-01-16T10:47:38.789Z,11.38
2024-01-16T10:50:08.571Z,10.57
2024-01-16T10:52:42.731Z,11.68
2024-01-16T10:55:24.243Z,11.68
2024-01-16T10:57:52.924Z,10.70
2024-01-16T11:00:24.130Z,12.25
2024-01-16T11:03:07.024Z,11.70
2024-01-16T11:05:37.277Z,12.85
2024-01-16T11:08:06.639Z,12.27
2024-01-16T11:10:37.511Z,13.38
2024-01-16T11:13:06.469Z,12.70
2024-01-16T11:15:34.152Z,13.18
2024-01-16T11:18:03.095Z,12.80
2024-01-16T11:20:55.129Z,13.07
2024-01-16T11:23:19.519Z,12.88
2024-01-16T11:25:47.240Z,13.15
2024-01-16T11:28:15.775Z,13.40
2024-01-16T11:31:02.708Z,13.80
2024-01-16T11:33:32.933Z,12.73
2024-01-16T11:36:01.487Z,12.73
2024-01-16T11:38:31.196Z,12.48
2024-01-16T11:40:58.647Z,14.63
2024-01-16T11:43:35.465Z,13.95
2024-01-16T11:46:04.027Z,15.07
2024-01-16T11:48:31.427Z,13.80
2024-01-16T11:50:58.877Z,12.23
2024-01-16T11:53:32.600Z,15.27
2024-01-16T11:56:31.163Z,14.40
2024-01-16T11:59:08.775Z,13.55
2024-01-16T12:01:36.969Z,13.65
2024-01-16T12:04:08.386Z,14.05
2024-01-16T12:06:37.518Z,14.35
2024-01-16T12:09:21.508Z,13.75
2024-01-16T12:12:02.791Z,14.23
2024-01-16T12:14:31.232Z,15.57
2024-01-16T12:17:15.451Z,14.93
2024-01-16T12:19:44.605Z,14.02
2024-01-16T12:22:15.455Z,15.77
2024-01-16T12:24:43.084Z,14.82
2024-01-16T12:27:11.057Z,13.50
2024-01-16T12:29:38.424Z,13.65
2024-01-16T12:32:11.140Z,14.63
2024-01-16T12:34:50.087Z,14.15
2024-01-16T12:37:18.507Z,15.30
2024-01-16T12:39:46.152Z,13.65
2024-01-16T12:42:14.351Z,13.77
2024-01-16T12:44:42.046Z,12.82
2024-01-16T12:47:10.072Z,14.18
2024-01-16T12:49:44.648Z,13.40
2024-01-16T12:52:27.613Z,13.88
2024-01-16T12:55:09.645Z,13.20
2024-01-16T12:57:38.541Z,12.85
2024-01-16T13:00:27.273Z,13.57
2024-01-16T13:02:56.883Z,12.15
2024-01-16T13:05:24.511Z,13.13
2024-01-16T13:08:04.685Z,13.65
2024-01-16T13:10:33.179Z,12.25
2024-01-16T13:13:20.031Z,11.80
2024-01-16T13:15:47.804Z,12.85
2024-01-16T13:18:33.835Z,13.10
2024-01-16T13:21:02.321Z,13.05
2024-01-16T13:23:30.089Z,13.18
2024-01-16T13:25:58.363Z,13.73
2024-01-16T13:28:26.691Z,12.98
2024-01-16T13:30:54.575Z,12.35
2024-01-16T13:33:29.486Z,12.68
2024-01-16T13:35:56.969Z,12.48
2024-01-16T13:38:25.462Z,13.35
2024-01-16T13:40:52.947Z,13.63
2024-01-16T13:43:22.645Z,13.15
2024-01-16T13:45:51.118Z,13.02
2024-01-16T13:48:19.316Z,14.23
2024-01-16T13:50:47.200Z,14.77
2024-01-16T13:53:14.727Z,13.90
2024-01-16T13:55:42.710Z,14.50
2024-01-16T13:58:10.387Z,14.38
2024-01-16T14:00:37.721Z,14.88
2024-01-16T14:03:07.041Z,13.98
2024-01-16T14:05:34.568Z,12.45
2024-01-16T14:08:01.953Z,14.02
2024-01-16T14:10:29.279Z,14.55
2024-01-16T14:12:56.869Z,12.82
2024-01-16T14:15:25.435Z,13.02
2024-01-16T14:17:55.740Z,13.40
2024-01-16T14:20:27.767Z,12.38
2024-01-16T14:22:56.493Z,11.65
2024-01-16T14:25:24.782Z,12.80
2024-01-16T14:28:05.523Z,12.40
2024-01-16T14:30:34.733Z,12.75
2024-01-16T14:33:03.016Z,13.68
2024-01-16T14:35:30.591Z,11.93
2024-01-16T14:37:58.608Z,12.52
2024-01-16T14:40:29.252Z,12.60
2024-01-16T14:43:00.621Z,12.00
2024-01-16T14:45:29.142Z,12.48
2024-01-16T14:47:56.748Z,12.48
2024-01-16T14:50:25.791Z,11.20
2024-01-16T14:52:53.866Z,11.45
2024-01-16T14:55:21.842Z,11.23
2024-01-16T14:57:54.497Z,11.50
2024-01-16T15:00:24.383Z,11.02
2024-01-16T15:02:52.248Z,12.80
2024-01-16T15:05:21.068Z,13.32
2024-01-16T15:07:49.938Z,12.50
2024-01-16T15:10:18.038Z,13.77
2024-01-16T15:12:48.351Z,13.40
2024-01-16T15:15:17.014Z,13.57
2024-01-16T15:17:46.025Z,13.60
2024-01-16T15:20:13.885Z,13.73
2024-01-16T15:22:47.258Z,12.70
2024-01-16T15:25:17.086Z,14.32
2024-01-16T15:27:46.831Z,15.52
2024-01-16T15:30:16.800Z,14.30
2024-01-16T15:32:44.455Z,14.68
2024-01-16T15:35:12.724Z,14.80
2024-01-16T15:37:40.557Z,14.07
2024-01-16T15:40:08.612Z,14.07
2024-01-16T15:42:40.538Z,14.63
2024-01-16T15:45:09.292Z,14.70
2024-01-16T15:47:37.873Z,15.55
2024-01-16T15:50:06.739Z,13.60
2024-01-16T15:52:34.407Z,13.63
2024-01-16T15:55:02.684Z,15.80
2024-01-16T15:57:31.537Z,14.55
2024-01-16T15:59:58.908Z,14.80
2024-01-16T16:02:26.263Z,14.85
2024-01-16T16:04:55.320Z,15.75
2024-01-16T16:07:25.006Z,15.80
2024-01-16T16:09:53.751Z,14.52
2024-01-16T16:12:21.324Z,13.27
2024-01-16T16:14:48.827Z,13.57
2024-01-16T16:17:16.309Z,15.15
2024-01-16T16:19:43.891Z,14.57
2024-01-16T16:22:11.393Z,13.88
2024-01-16T16:24:39.153Z,14.30
2024-01-16T16:27:26.950Z,14.15
2024-01-16T16:29:57.788Z,14.60
2024-01-16T16:32:26.003Z,13.57
2024-01-16T16:34:54.726Z,14.05
2024-01-16T16:37:22.778Z,13.82
2024-01-16T16:39:50.349Z,13.43
2024-01-16T16:42:20.011Z,14.10
2024-01-16T16:44:48.273Z,12.45
2024-01-16T16:47:17.070Z,13.43
2024-01-16T16:49:44.834Z,14.68
2024-01-16T16:52:12.330Z,14.48
2024-01-16T16:54:39.800Z,13.90
2024-01-16T16:57:07.300Z,14.00
2024-01-16T16:59:34.805Z,14.13
2024-01-16T17:02:02.205Z,14.05
2024-01-16T17:04:29.720Z,14.23
2024-01-16T17:06:58.167Z,16.67
2024-01-16T17:09:26.179Z,14.40
2024-01-16T17:11:53.602Z,14.68
2024-01-16T17:14:20.913Z,15.13
2024-01-16T17:16:48.693Z,14.88
2024-01-16T17:19:16.380Z,14.68
2024-01-16T17:21:44.467Z,15.10
2024-01-16T17:24:11.971Z,14.60
2024-01-16T17:26:40.880Z,15.80
2024-01-16T17:29:08.485Z,15.57
2024-01-16T17:31:38.218Z,14.15
2024-01-16T17:34:06.954Z,13.82
2024-01-16T17:36:34.520Z,13.73
2024-01-16T17:39:02.266Z,14.82
2024-01-16T17:41:31.166Z,13.85
2024-01-16T17:43:59.425Z,13.90
2024-01-16T17:46:26.798Z,14.75
2024-01-16T17:48:55.808Z,14.02
2024-01-16T17:51:25.529Z,15.57
2024-01-16T17:53:54.649Z,14.23
2024-01-16T17:56:25.163Z,13.00
2024-01-16T17:58:53.715Z,11.95
2024-01-16T18:01:21.439Z,13.73
2024-01-16T18:03:49.250Z,13.00
2024-01-16T18:06:23.484Z,13.48
2024-01-16T18:08:51.276Z,14.80
2024-01-16T18:11:18.764Z,15.07
2024-01-16T18:13:46.652Z,15.65
2024-01-16T18:16:15.220Z,16.88
2024-01-16T18:18:43.010Z,15.63
2024-01-16T18:21:13.905Z,14.45
2024-01-16T18:23:44.491Z,15.80
2024-01-16T18:26:13.632Z,14.25
2024-01-16T18:28:41.567Z,15.25
2024-01-16T18:31:10.561Z,17.05
2024-01-16T18:33:40.269Z,15.35
2024-01-16T18:36:08.156Z,14.65
2024-01-16T18:38:35.680Z,15.40
2024-01-16T18:41:05.467Z,14.50
2024-01-16T18:43:33.399Z,16.75
2024-01-16T18:46:00.735Z,15.45
2024-01-16T18:48:30.482Z,15.73
2024-01-16T18:50:58.129Z,14.98
2024-01-16T18:53:26.591Z,15.43
2024-01-16T18:55:54.127Z,15.68
2024-01-16T18:58:24.621Z,16.33
2024-01-16T19:00:57.831Z,15.80
2024-01-16T19:03:25.525Z,15.48
2024-01-16T19:05:57.900Z,15.48
2024-01-16T19:08:25.710Z,16.15
2024-01-16T19:10:55.156Z,16.52
2024-01-16T19:13:25.627Z,15.95
2024-01-16T19:15:53.751Z,16.40
2024-01-16T19:18:21.854Z,15.02
2024-01-16T19:20:49.676Z,16.20
2024-01-16T19:23:17.985Z,18.30
2024-01-16T19:25:47.205Z,16.08
2024-01-16T19:28:14.673Z,15.18
2024-01-16T19:30:42.148Z,15.77
2024-01-16T19:33:09.790Z,14.07
2024-01-16T19:35:38.114Z,14.48
2024-01-16T19:38:05.870Z,15.73
2024-01-16T19:40:33.721Z,13.57
2024-01-16T19:43:06.512Z,15.57
2024-01-16T19:45:34.309Z,13.40
2024-01-16T19:48:04.575Z,14.13
2024-01-16T19:50:33.536Z,14.55
2024-01-16T19:53:04.065Z,13.18
2024-01-16T19:55:32.069Z,13.73
2024-01-16T19:58:01.428Z,13.52
2024-01-16T20:00:29.197Z,13.43
2024-01-16T20:02:57.170Z,14.05
2024-01-16T20:05:24.685Z,12.85
2024-01-16T20:07:52.272Z,13.00
2024-01-16T20:10:19.652Z,12.13
2024-01-16T20:12:49.897Z,13.18
2024-01-16T20:15:23.036Z,12.82
2024-01-16T20:17:51.927Z,12.77
2024-01-16T20:20:20.191Z,13.38
2024-01-16T20:22:48.435Z,13.35
2024-01-16T20:25:16.101Z,13.35
2024-01-16T20:27:44.456Z,13.02
2024-01-16T20:30:14.222Z,12.20
2024-01-16T20:32:44.705Z,12.97
2024-01-16T20:35:14.344Z,12.98
2024-01-16T20:37:42.625Z,12.20
2024-01-16T20:40:10.950Z,14.30
2024-01-16T20:42:38.589Z,14.70
2024-01-16T20:45:10.712Z,13.60
2024-01-16T20:47:42.242Z,13.73
2024-01-16T20:50:11.231Z,15.27
2024-01-16T20:52:39.086Z,14.30
2024-01-16T20:55:08.587Z,13.77
2024-01-16T20:57:36.803Z,13.40
2024-01-16T21:00:14.187Z,12.60
2024-01-16T21:02:42.515Z,13.25
2024-01-16T21:05:09.966Z,12.45
2024-01-16T21:07:37.546Z,12.82
2024-01-16T21:10:05.573Z,12.00
2024-01-16T21:12:33.399Z,10.70
2024-01-16T21:15:01.040Z,11.10
2024-01-16T21:17:29.630Z,11.80
2024-01-16T21:19:56.997Z,11.02
2024-01-16T21:22:30.835Z,11.25
2024-01-16T21:25:03.499Z,10.38
2024-01-16T21:27:30.747Z,9.93
2024-01-16T21:29:58.161Z,10.48
2024-01-16T21:32:25.960Z,9.38
2024-01-16T21:34:53.365Z,9.52
2024-01-16T21:37:20.622Z,9.85
2024-01-16T21:39:47.867Z,8.18
2024-01-16T21:42:15.334Z,8.65
2024-01-16T21:44:42.635Z,9.80
2024-01-16T21:47:10.374Z,8.95
2024-01-16T21:49:37.666Z,10.00
2024-01-16T21:52:05.147Z,9.52
2024-01-16T21:54:33.926Z,8.98
2024-01-16T21:57:01.305Z,8.30
2024-01-16T21:59:28.607Z,8.52
2024-01-16T22:01:55.863Z,8.45
2024-01-16T22:04:23.092Z,8.38
2024-01-16T22:06:50.391Z,7.70
2024-01-16T22:09:22.280Z,7.60
2024-01-16T22:11:50.084Z,8.68
2024-01-16T22:14:17.421Z,8.10
2024-01-16T22:16:44.655Z,7.97
2024-01-16T22:19:11.891Z,7.60
2024-01-16T22:21:39.143Z,6.95
2024-01-16T22:24:06.701Z,7.23
2024-01-16T22:26:34.246Z,6.67
2024-01-16T22:29:01.609Z,7.13
2024-01-16T22:31:28.881Z,6.23
2024-01-16T22:33:56.284Z,5.60
2024-01-16T22:36:23.859Z,6.33
2024-01-16T22:38:51.145Z,5.97
2024-01-16T22:41:18.347Z,6.13
2024-01-16T22:43:46.479Z,6.80
2024-01-16T22:46:13.681Z,6.57
2024-01-16T22:48:41.639Z,6.33
2024-01-16T22:51:15.370Z,5.93
2024-01-16T22:53:44.004Z,6.93
2024-01-16T22:56:11.252Z,6.23
2024-01-16T22:58:43.305Z,6.53
2024-01-16T23:01:10.547Z,6.70
2024-01-16T23:03:37.993Z,6.20
2024-01-16T23:08:34.242Z,6.40
2024-01-16T23:11:01.552Z,6.10
2024-01-16T23:13:28.970Z,6.10
2024-01-16T23:15:56.166Z,5.50
2024-01-16T23:18:23.531Z,6.30
2024-01-16T23:20:50.844Z,6.53
2024-01-16T23:23:19.097Z,6.77
2024-01-16T23:25:46.980Z,6.23
2024-01-16T23:28:14.385Z,6.40
2024-01-16T23:30:41.680Z,6.77
2024-01-16T23:33:09.424Z,6.90
2024-01-16T23:35:36.825Z,6.20
2024-01-16T23:38:07.197Z,6.20
2024-01-16T23:40:34.448Z,6.13
2024-01-16T23:43:01.883Z,6.60
2024-01-16T23:45:33.711Z,6.43
2024-01-16T23:48:01.859Z,6.53
2024-01-16T23:50:30.339Z,5.67
2024-01-16T23:52:58.708Z,6.67
2024-01-16T23:55:26.225Z,6.50
2024-01-16T23:57:53.487Z,6.40
